Lodz, Poland

10:33 AM CEST on July 27, 2016 (GMT +0200)
Lublinek | | Change Station

Elev 604 ft 51.72 °N, 19.40 °E | Updated 3 minutes ago

Thunderstorm
Thunderstorm
73 °F
Feels Like 73 °F
N
16
Wind Variable Wind from South

Today
High -- | Low -- °F
--% Chance of Precip.
Yesterday
High -- | Low -- °F
Precip. -- in
Pressure 30.06 in
Visibility 6.2 miles
Clouds Scattered Clouds 2100 ft
Mostly Cloudy 3500 ft
Dew Point 64 °F
Humidity 73%
Rainfall 0.00 in
Snow Depth Not available.
4:58 AM 8:38 PM
Last Quarter, 45% visible
METAR EPLL 270830Z 19014KT 9999 TS SCT021 BKN035CB 23/18 Q1018
Pressure 30.06 in
Visibility 6.2 miles
Clouds Scattered Clouds 2100 ft
Mostly Cloudy 3500 ft
Dew Point 64 °F
Humidity 73%
Rainfall 0.00 in
Snow Depth Not available.
4:58 AM 8:38 PM
Last Quarter, 45% visible
METAR EPLL 270830Z 19014KT 9999 TS SCT021 BKN035CB 23/18 Q1018

10-Day Weather Forecast

×

Almanac

Astronomy

Jul. 27, 2016 Rise Set
Actual Time
Civil Twilight
Nautical Twilight
Astronomical Twilight
Moon
Length of Visible Light
Length of Day
Tomorrow will be .
, % of the Moon is Illuminated

Today's Extremes

Country Highs Country Lows

Community

WunderPhotos

Upload Photos

1,927,818 photos uploaded!

WunderBlog® & News

Nearby

Air Quality

  Air Quality AQ Index Pollutant
Not available.

Snow Depth

Station Depth Elevation

Earthquake Activity

City Distance Mag. Time & Date
Minimum magnitude displayed is 2.5.

Coastal Water Temperatures

Place Temperature

Stations

Nearby Weather Stations

Station Location Temp. Windchill Dew Point Humidity Wind Precip. Elev Updated Type